Aérodrome :
LOGIN :

S'inscrire | Disclaimer

   EN    FR    IT 

 










Légende :    VFR   VFR Marginal   IFR   IFR Intensif   IFR Très Intensif
Visi : 
Plafond : 
>= 8 km
>= 3000ft
5 à 8 km
1000 à 3000 ft
1500m à 5 km
500 à 1000 ft
800 à 1500m
200 à 500 ft
< 800m
< 200 ft
Symboles :   Orages  Brouillard  Fortes neiges  Fortes précipitations  Vent > 20 kt
SIGMETs :   Divers  Orages  Givrage  Turbulence  Onde Orograph.  Cendres Volcan.






- Altitude de l'aérodrome : 280 ft
- Code IATA : FAE


EKVG - Vagar

DERNIER METAR :
  • 020720Z AUTO 30027G50KT 2900 -FZRA BKN022/// M00/M04 Q0995

METARs EXPIRÉS :
  • 020650Z AUTO 30032G46KT 9999 -FZDZ BKN034/// 00/M06 Q0995
  • 020620Z AUTO 30029G47KT 8000 -FZRA BKN032/// 00/M07 Q0995 REFZRA
  • 020550Z AUTO 31031G48KT 1400 R12/P1500N R30/P1500U FZRA BKN038/// M00/M07 Q0994 REFZRA
  • 020520Z AUTO 31030G46KT 1400 R12/P1500N R30/P1500N FZRA BKN040/// 00/M07 Q0994
  • 020450Z AUTO 32032G45KT 1400 R12/P1500D R30/P1500D -SN BKN023/// 00/M06 Q0993 REFZRA

TAF TAF EKVG
Valide du 02 à 06h jusqu'au 02 à 15h UTC


020522Z 0206/0215 32030G48KT 9999 -SHSNRA SCT018 BKN025
TEMPO 0206/0211 1000 SHSN BKN005 OVC010
PROB40
TEMPO 0206/0209 28040G55KT 1000 FZRA OVC008
BECMG 0210/0212 36025G35KT



MET'MAP, la Météo Aéronautique d'un coup d'oeil ! - Copyright ORBIFLY Décembre 2007 - Disclaimer

ORBIFLY MET'MAP TEAM :

Programmation & Développement : Alexandra Zaïnal
Sur une idée originale de : Baudouin d'Aumeries
Assistance à la programmation : Marc-Olivier Méhu
Soutien technique & logistique : Manuel Goepfert

Contact : metmap@orbifly.com




SOURCES & CREDITS :

   NOAA